Time;durP1;ratioP1;P1;durP2;ratioP2;P2;SDS_P1;SDS_P2;PMS_P1;PMS_P2;Temp;Humidity;BMP_temperature;BMP_pressure;BME280_temperature;BME280_humidity;BME280_pressure;Samples;Min_cycle;Max_cycle;Signal;HPM_P1;HPM_P2
2022/08/16 00:02:31;;;;;;;10.88;9.82;;;;;;;24.80;50.56;100452.97;5093438;28;20123;-71
2022/08/16 00:05:01;;;;;;;11.32;9.88;;;;;;;24.76;50.78;100459.09;5094228;28;20033;-71
2022/08/16 00:07:29;;;;;;;11.95;10.73;;;;;;;24.70;50.73;100458.03;5093113;28;20044;-70
2022/08/16 00:09:57;;;;;;;11.45;10.25;;;;;;;24.65;50.96;100452.31;5093288;28;20050;-70
2022/08/16 00:12:26;;;;;;;14.45;10.40;;;;;;;24.61;50.91;100454.66;5093181;28;20111;-71
2022/08/16 00:14:55;;;;;;;11.02;9.57;;;;;;;24.56;50.85;100456.31;5093497;28;20494;-70
2022/08/16 00:17:23;;;;;;;12.02;10.15;;;;;;;24.52;51.22;100455.03;5093054;28;20448;-69
2022/08/16 00:19:50;;;;;;;14.05;10.55;;;;;;;24.51;51.41;100454.19;5092634;28;20048;-70
2022/08/16 00:22:22;;;;;;;13.82;9.63;;;;;;;24.48;51.19;100459.25;5092005;28;20406;-71
2022/08/16 00:24:52;;;;;;;14.35;9.75;;;;;;;24.45;51.37;100463.25;5093055;27;20048;-71
2022/08/16 00:27:20;;;;;;;11.55;9.75;;;;;;;24.44;51.34;100467.06;5092986;28;20521;-70
2022/08/16 00:29:47;;;;;;;12.57;9.38;;;;;;;24.42;51.41;100468.31;5093098;28;20478;-71
2022/08/16 00:32:27;;;;;;;9.65;8.73;;;;;;;24.40;51.66;100461.13;5091434;28;20405;-72
2022/08/16 00:34:59;;;;;;;9.57;8.68;;;;;;;24.38;51.46;100465.97;5092102;28;20115;-71
2022/08/16 00:37:27;;;;;;;11.40;9.35;;;;;;;24.36;51.64;100464.50;5091513;28;20481;-70
2022/08/16 00:40:21;;;;;;;12.02;10.05;;;;;;;24.36;51.69;100459.84;5091838;28;20047;-70
2022/08/16 00:43:32;;;;;;;11.57;9.27;;;;;;;24.34;51.93;100467.47;5091482;28;20134;-71
2022/08/16 00:46:28;;;;;;;11.20;9.40;;;;;;;24.32;51.59;100464.06;5092219;28;20040;-71
2022/08/16 00:49:07;;;;;;;17.25;10.57;;;;;;;24.30;51.46;100468.06;5091307;28;20494;-72
2022/08/16 00:51:47;;;;;;;12.18;10.50;;;;;;;24.27;51.48;100472.09;5092442;28;20122;-70
2022/08/16 00:54:24;;;;;;;14.68;11.05;;;;;;;24.25;51.57;100463.19;5092688;27;20135;-71
2022/08/16 00:56:51;;;;;;;13.60;10.88;;;;;;;24.21;51.72;100469.28;5092431;28;20075;-71
2022/08/16 00:59:27;;;;;;;11.90;10.70;;;;;;;24.18;51.91;100476.03;5090361;28;20044;-70
2022/08/16 01:01:55;;;;;;;11.18;9.48;;;;;;;24.13;51.72;100481.31;5092174;28;20032;-70
2022/08/16 01:04:25;;;;;;;13.30;9.65;;;;;;;24.07;51.48;100474.75;5092457;28;20064;-70
2022/08/16 01:07:00;;;;;;;;;;;;;;;23.98;51.50;100473.22;5075431;28;20464;-70
2022/08/16 01:09:32;;;;;;;10.82;9.73;;;;;;;23.94;51.32;100480.19;5092145;28;19920;-71
2022/08/16 01:12:02;;;;;;;11.90;10.57;;;;;;;23.84;51.52;100474.22;5090375;28;20043;-71
2022/08/16 01:14:43;;;;;;;12.70;10.60;;;;;;;23.77;51.96;100474.16;5090881;27;20076;-71
2022/08/16 01:17:15;;;;;;;11.77;9.57;;;;;;;23.72;51.81;100468.44;5091838;28;20047;-71
2022/08/16 01:19:51;;;;;;;13.85;10.50;;;;;;;23.70;52.24;100465.06;5091080;28;20043;-71
2022/08/16 01:22:55;;;;;;;14.45;12.07;;;;;;;23.67;52.29;100467.38;5090517;28;20040;-70
2022/08/16 01:25:41;;;;;;;14.52;13.13;;;;;;;23.65;52.06;100470.31;5090678;28;20071;-70
2022/08/16 01:28:14;;;;;;;13.68;12.18;;;;;;;23.62;52.33;100469.88;5090311;28;20196;-71
2022/08/16 01:30:52;;;;;;;12.48;11.23;;;;;;;23.56;52.39;100473.44;5091706;28;20036;-71
2022/08/16 01:33:23;;;;;;;15.30;12.57;;;;;;;23.52;52.24;100470.22;5090490;28;20472;-71
2022/08/16 01:36:06;;;;;;;14.25;11.43;;;;;;;23.51;52.51;100470.41;5090475;28;20500;-71
2022/08/16 01:38:49;;;;;;;13.73;11.90;;;;;;;23.50;52.61;100468.72;5089780;28;20086;-71
2022/08/16 01:41:29;;;;;;;13.75;12.00;;;;;;;23.48;52.58;100466.19;5090388;28;20051;-70
2022/08/16 01:43:57;;;;;;;17.55;14.32;;;;;;;23.46;52.59;100471.03;5090233;27;20048;-71
2022/08/16 01:46:29;;;;;;;16.02;13.35;;;;;;;23.43;52.49;100465.94;5090363;28;20044;-71
2022/08/16 01:49:23;;;;;;;17.50;13.20;;;;;;;23.37;52.78;100478.56;5090307;28;20044;-70
2022/08/16 01:52:12;;;;;;;15.13;13.52;;;;;;;23.33;52.71;100476.41;5089595;28;20394;-70
2022/08/16 01:55:02;;;;;;;15.60;13.90;;;;;;;23.29;52.74;100467.75;5090145;28;20134;-70
2022/08/16 01:57:29;;;;;;;19.13;14.52;;;;;;;23.25;52.80;100473.84;5090180;28;20098;-70
2022/08/16 01:59:58;;;;;;;16.35;13.30;;;;;;;23.19;52.97;100467.28;5089962;28;20136;-70
2022/08/16 02:02:25;;;;;;;18.02;14.15;;;;;;;23.16;53.33;100464.94;5090725;28;20063;-70
2022/08/16 02:04:55;;;;;;;17.60;14.40;;;;;;;23.14;52.95;100470.59;5073662;28;20044;-70
2022/08/16 02:07:24;;;;;;;15.13;13.48;;;;;;;23.10;53.17;100468.47;5090047;28;20550;-70
2022/08/16 02:09:52;;;;;;;18.13;13.93;;;;;;;23.05;53.05;100468.22;5089948;28;20121;-69
2022/08/16 02:12:30;;;;;;;18.45;14.38;;;;;;;23.02;53.14;100471.31;5073938;28;20044;-70
2022/08/16 02:15:20;;;;;;;20.48;13.65;;;;;;;23.00;53.42;100467.94;5090976;28;20569;-70
2022/08/16 02:17:55;;;;;;;17.60;13.80;;;;;;;22.94;53.47;100463.25;5089806;28;20044;-71
2022/08/16 02:20:25;;;;;;;15.82;13.55;;;;;;;22.90;53.32;100470.19;5091213;28;20041;-70
2022/08/16 02:23:12;;;;;;;17.27;13.38;;;;;;;22.86;53.55;100467.00;5089107;28;20127;-71
2022/08/16 02:25:39;;;;;;;15.55;13.27;;;;;;;22.84;53.31;100474.56;5091213;28;20046;-70
2022/08/16 02:28:20;;;;;;;15.65;13.57;;;;;;;22.81;53.64;100474.94;5091085;28;20051;-70
2022/08/16 02:30:50;;;;;;;17.45;14.38;;;;;;;22.78;53.73;100475.31;5093570;28;20044;-71
2022/08/16 02:33:23;;;;;;;15.48;13.57;;;;;;;22.74;53.77;100463.91;5076459;28;20040;-70
2022/08/16 02:36:14;;;;;;;16.67;13.75;;;;;;;22.71;53.84;100461.56;5080462;28;20080;-71
2022/08/16 02:39:03;;;;;;;14.73;13.05;;;;;;;22.69;53.62;100465.53;5079879;28;20039;-71
2022/08/16 02:41:30;;;;;;;15.25;13.32;;;;;;;22.65;53.74;100467.84;5095018;28;20036;-72
2022/08/16 02:44:04;;;;;;;17.75;12.75;;;;;;;22.62;54.02;100467.38;5077406;28;20135;-72
2022/08/16 02:46:32;;;;;;;15.68;14.02;;;;;;;22.62;53.81;100468.22;5095114;28;20044;-70
2022/08/16 02:49:01;;;;;;;15.32;13.18;;;;;;;22.63;53.94;100469.06;5093637;28;20533;-71
2022/08/16 02:51:32;;;;;;;17.35;13.18;;;;;;;22.61;54.02;100469.28;5093607;28;20047;-71
2022/08/16 02:54:06;;;;;;;16.20;14.50;;;;;;;22.59;53.97;100468.63;5093403;28;20516;-70
2022/08/16 02:56:35;;;;;;;17.55;14.10;;;;;;;22.58;54.20;100466.06;5094925;27;20059;-70
2022/08/16 02:59:02;;;;;;;15.27;13.68;;;;;;;22.56;54.08;100463.53;5076848;28;20533;-71
2022/08/16 03:01:40;;;;;;;17.15;13.38;;;;;;;22.55;54.31;100459.09;5093036;28;20490;-70
2022/08/16 03:04:19;;;;;;;15.48;12.75;;;;;;;22.55;54.37;100455.53;5090186;28;20047;-70
2022/08/16 03:07:06;;;;;;;15.07;12.32;;;;;;;22.54;54.10;100456.56;5074249;28;20503;-70
2022/08/16 03:09:43;;;;;;;13.07;11.68;;;;;;;22.51;54.06;100464.13;5090097;28;20055;-70
2022/08/16 03:12:13;;;;;;;15.25;12.60;;;;;;;22.48;54.11;100460.94;5072766;28;20090;-70
2022/08/16 03:14:45;;;;;;;17.95;13.23;;;;;;;22.46;54.27;100460.28;5079346;28;20482;-71
2022/08/16 03:17:13;;;;;;;15.60;13.07;;;;;;;22.45;54.53;100459.44;5092695;28;20056;-70
2022/08/16 03:19:43;;;;;;;13.38;11.35;;;;;;;22.45;54.60;100461.31;5093042;28;20075;-71
2022/08/16 03:22:25;;;;;;;13.52;12.13;;;;;;;22.44;54.29;100465.09;5092271;28;20040;-71
2022/08/16 03:25:01;;;;;;;14.82;12.35;;;;;;;22.45;54.35;100464.06;5093124;28;20044;-71
2022/08/16 03:27:32;;;;;;;14.63;12.25;;;;;;;22.42;54.46;100462.56;5092805;28;20093;-70
2022/08/16 03:30:11;;;;;;;13.68;12.18;;;;;;;22.41;54.39;100462.75;5093140;28;20102;-70
2022/08/16 03:32:48;;;;;;;13.82;12.35;;;;;;;22.39;54.50;100462.09;5093965;28;20044;-70
2022/08/16 03:35:21;;;;;;;13.52;11.23;;;;;;;22.34;54.45;100459.09;5092951;28;20131;-70
2022/08/16 03:37:55;;;;;;;14.93;12.75;;;;;;;22.28;54.57;100455.22;5094015;28;20124;-70
2022/08/16 03:40:33;;;;;;;16.25;12.43;;;;;;;22.25;54.55;100457.50;5092063;28;20135;-70
2022/08/16 03:43:08;;;;;;;16.17;12.23;;;;;;;22.19;54.63;100457.25;5091954;28;20040;-70
2022/08/16 03:45:49;;;;;;;18.40;12.27;;;;;;;22.16;54.55;100468.56;5093864;28;20145;-69
2022/08/16 03:48:18;;;;;;;16.15;12.50;;;;;;;22.12;54.74;100471.88;5093767;28;20547;-69
2022/08/16 03:50:45;;;;;;;15.50;12.45;;;;;;;22.07;54.65;100480.66;5092160;28;20036;-69
2022/08/16 03:53:30;;;;;;;12.43;11.13;;;;;;;22.06;54.85;100478.97;5072038;28;20045;-69
2022/08/16 03:56:06;;;;;;;14.82;12.38;;;;;;;22.05;54.88;100477.28;5072067;28;20395;-70
2022/08/16 03:58:44;;;;;;;16.58;12.75;;;;;;;22.03;54.87;100473.88;5072040;28;20468;-69
2022/08/16 04:01:13;;;;;;;14.57;12.80;;;;;;;22.01;54.98;100480.56;5071944;28;20053;-70
2022/08/16 04:03:44;;;;;;;14.15;11.40;;;;;;;22.00;54.99;100481.59;5081060;28;20127;-70
2022/08/16 04:06:12;;;;;;;14.50;12.18;;;;;;;21.99;54.79;100483.50;5092041;28;20040;-70
2022/08/16 04:08:41;;;;;;;15.05;11.23;;;;;;;21.99;54.97;100491.69;5092157;28;20383;-69
2022/08/16 04:11:10;;;;;;;13.35;11.50;;;;;;;21.98;54.87;100491.88;5091586;28;20040;-70
2022/08/16 04:13:42;;;;;;;17.38;11.95;;;;;;;21.97;54.97;100492.91;5091830;28;20047;-69
2022/08/16 04:16:27;;;;;;;;;;;;;;;21.94;54.79;100502.34;5092286;28;20048;-69
2022/08/16 04:19:03;;;;;;;15.75;11.82;;;;;;;21.92;54.59;100501.69;5091985;28;19920;-69
2022/08/16 04:21:34;;;;;;;14.70;12.10;;;;;;;21.88;54.55;100508.59;5091419;28;20135;-69
2022/08/16 04:24:03;;;;;;;16.33;12.57;;;;;;;21.84;54.81;100507.28;5092179;28;20463;-69
2022/08/16 04:26:34;;;;;;;13.80;11.95;;;;;;;21.82;55.10;100503.88;5091827;28;20194;-69
2022/08/16 04:29:03;;;;;;;14.45;11.40;;;;;;;21.81;55.15;100507.66;5092385;27;20036;-70
2022/08/16 04:31:51;;;;;;;15.38;11.88;;;;;;;21.81;55.03;100507.66;5077321;28;20051;-68
2022/08/16 04:34:31;;;;;;;15.70;11.77;;;;;;;21.79;55.12;100518.78;5092861;28;20052;-69
2022/08/16 04:36:59;;;;;;;17.00;12.05;;;;;;;21.79;55.17;100526.13;5092820;28;20515;-69
2022/08/16 04:39:33;;;;;;;14.32;12.75;;;;;;;21.78;55.49;100522.56;5091255;28;20098;-68
2022/08/16 04:42:16;;;;;;;16.48;12.15;;;;;;;21.73;55.17;100522.28;5091407;28;20044;-69
2022/08/16 04:44:45;;;;;;;17.90;12.13;;;;;;;21.70;55.39;100517.19;5091543;28;20079;-69
2022/08/16 04:47:27;;;;;;;15.23;12.05;;;;;;;21.71;55.42;100516.16;5091494;28;20040;-69
2022/08/16 04:50:07;;;;;;;15.32;11.88;;;;;;;21.73;55.65;100522.28;5091381;28;20047;-69
2022/08/16 04:52:34;;;;;;;17.25;12.07;;;;;;;21.75;55.52;100519.34;5089934;28;20097;-69
2022/08/16 04:55:07;;;;;;;14.05;12.48;;;;;;;21.76;55.45;100527.34;5091337;28;20069;-69
2022/08/16 04:57:38;;;;;;;16.10;12.80;;;;;;;21.76;55.74;100526.50;5090950;28;20048;-69
2022/08/16 05:00:11;;;;;;;14.65;12.73;;;;;;;21.76;55.53;100526.50;5091168;28;20043;-69
2022/08/16 05:03:06;;;;;;;14.82;13.20;;;;;;;21.80;55.83;100527.81;5090218;28;20048;-70
2022/08/16 05:05:41;;;;;;;13.40;11.70;;;;;;;21.82;55.88;100536.69;5091083;28;20458;-69
2022/08/16 05:08:13;;;;;;;15.55;12.23;;;;;;;21.81;55.61;100529.53;5090956;28;20036;-69
2022/08/16 05:11:04;;;;;;;20.40;14.15;;;;;;;21.79;56.05;100528.88;5091072;28;20048;-69
2022/08/16 05:13:38;;;;;;;16.95;13.23;;;;;;;21.75;56.10;100527.53;5092241;28;20066;-69
2022/08/16 05:16:16;;;;;;;14.50;12.07;;;;;;;21.75;55.94;100530.28;5090423;28;20044;-69
2022/08/16 05:18:54;;;;;;;14.18;12.68;;;;;;;21.80;55.83;100527.81;5090684;27;20059;-69
2022/08/16 05:21:24;;;;;;;15.85;12.65;;;;;;;21.83;56.29;100539.22;5090906;28;20452;-69
2022/08/16 05:23:55;;;;;;;17.80;14.27;;;;;;;21.84;56.09;100540.06;5092116;28;20044;-69
2022/08/16 05:26:31;;;;;;;15.90;12.70;;;;;;;21.84;56.34;100540.06;5090285;28;20044;-70
2022/08/16 05:28:59;;;;;;;14.45;12.43;;;;;;;21.84;56.25;100540.94;5089816;28;20135;-69
2022/08/16 05:31:31;;;;;;;18.67;12.82;;;;;;;21.86;56.33;100538.00;5089886;28;20070;-70
2022/08/16 05:34:02;;;;;;;15.50;13.38;;;;;;;21.89;56.59;100537.63;5090050;28;20040;-70
2022/08/16 05:36:33;;;;;;;15.63;12.98;;;;;;;21.90;56.82;100539.31;5090099;28;20409;-71
2022/08/16 05:39:07;;;;;;;17.92;13.77;;;;;;;21.91;56.90;100548.38;5089996;28;20071;-70
2022/08/16 05:41:36;;;;;;;17.70;14.00;;;;;;;21.93;56.62;100546.28;5089838;28;20090;-71
2022/08/16 05:44:14;;;;;;;17.17;13.98;;;;;;;21.97;57.14;100544.88;5090631;28;20127;-71
2022/08/16 05:46:56;;;;;;;16.35;14.52;;;;;;;22.05;57.25;100547.53;5089996;28;20044;-71
2022/08/16 05:49:29;;;;;;;17.83;14.73;;;;;;;22.10;57.17;100545.91;5106624;28;20048;-70
2022/08/16 05:52:08;;;;;;;17.92;15.07;;;;;;;22.12;57.13;100543.84;5090051;28;20044;-72
2022/08/16 05:54:38;;;;;;;17.48;15.68;;;;;;;22.18;57.21;100547.69;5090534;28;20050;-71
2022/08/16 05:57:17;;;;;;;20.27;15.95;;;;;;;22.25;57.34;100542.31;5089753;28;20044;-71
2022/08/16 05:59:46;;;;;;;18.38;16.30;;;;;;;22.32;57.35;100546.00;5053283;28;20059;-71
2022/08/16 06:02:29;;;;;;;21.13;16.27;;;;;;;22.40;57.36;100551.38;5069818;28;20032;-70
2022/08/16 06:05:00;;;;;;;19.90;16.90;;;;;;;22.49;57.50;100550.19;5069830;28;20132;-69
2022/08/16 06:07:29;;;;;;;19.08;17.00;;;;;;;22.56;57.37;100559.31;5069873;28;20501;-70
2022/08/16 06:10:07;;;;;;;20.20;16.58;;;;;;;22.63;57.65;100557.50;5078970;28;20040;-71
2022/08/16 06:12:36;;;;;;;20.45;16.02;;;;;;;22.71;57.40;100565.59;5089854;28;20048;-71
2022/08/16 06:15:10;;;;;;;19.20;16.95;;;;;;;22.80;57.72;100574.56;5089818;28;20051;-71
2022/08/16 06:17:41;;;;;;;19.98;17.02;;;;;;;22.91;57.61;100567.72;5089117;28;20104;-71
2022/08/16 06:20:20;;;;;;;18.63;16.50;;;;;;;23.02;57.51;100575.41;5091297;28;20036;-70
2022/08/16 06:22:55;;;;;;;20.08;15.88;;;;;;;23.12;57.29;100574.06;5089852;28;20490;-71
2022/08/16 06:25:40;;;;;;;18.70;15.73;;;;;;;23.24;57.44;100582.59;5089914;28;20058;-71
2022/08/16 06:28:09;;;;;;;20.90;17.25;;;;;;;23.32;57.41;100574.22;5089947;28;20048;-71
2022/08/16 06:30:57;;;;;;;24.15;16.58;;;;;;;23.44;57.11;100580.00;5090135;28;20436;-71
2022/08/16 06:33:26;;;;;;;20.85;16.35;;;;;;;23.55;57.18;100584.13;5091147;28;20496;-71
2022/08/16 06:35:55;;;;;;;20.65;16.77;;;;;;;23.63;57.02;100578.50;5089867;28;20040;-71
2022/08/16 06:38:27;;;;;;;19.88;16.85;;;;;;;23.75;57.01;100572.25;5089460;28;20054;-71
2022/08/16 06:41:06;;;;;;;20.38;15.52;;;;;;;23.89;56.94;100572.34;5089767;28;20064;-71
2022/08/16 06:43:40;;;;;;;20.98;16.08;;;;;;;24.02;56.74;100572.41;5089645;27;20555;-72
2022/08/16 06:46:24;;;;;;;20.40;15.60;;;;;;;24.17;56.62;100578.63;5089716;28;20048;-71
2022/08/16 06:49:01;;;;;;;19.00;16.65;;;;;;;24.32;56.26;100573.00;5073090;28;20060;-71
2022/08/16 06:51:32;;;;;;;18.70;16.70;;;;;;;24.47;56.11;100576.44;5089370;28;20060;-71
2022/08/16 06:54:15;;;;;;;20.70;16.25;;;;;;;24.62;55.79;100588.13;5089748;28;20127;-71
2022/08/16 06:56:41;;;;;;;18.25;16.35;;;;;;;24.74;55.63;100584.78;5089581;28;20040;-72
2022/08/16 06:59:12;;;;;;;18.40;16.33;;;;;;;24.86;55.43;100580.38;5089560;28;20055;-68
2022/08/16 07:01:46;;;;;;;18.27;16.17;;;;;;;24.98;55.19;100585.06;5089459;28;20068;-73
2022/08/16 07:04:20;;;;;;;19.58;16.02;;;;;;;25.11;55.03;100581.50;5089705;28;20071;-72
2022/08/16 07:07:01;;;;;;;17.83;15.95;;;;;;;25.30;54.84;100579.84;5089184;28;20409;-72
2022/08/16 07:09:28;;;;;;;17.42;15.35;;;;;;;25.42;54.72;100583.63;5089538;28;20135;-71
2022/08/16 07:11:57;;;;;;;16.60;14.38;;;;;;;25.53;54.41;100584.91;5089292;28;20041;-72
2022/08/16 07:14:34;;;;;;;17.73;14.60;;;;;;;25.70;54.08;100588.09;5089511;28;20040;-71
2022/08/16 07:17:04;;;;;;;18.58;14.23;;;;;;;25.89;53.77;100590.78;5091232;28;20043;-72
2022/08/16 07:19:40;;;;;;;17.38;13.65;;;;;;;26.07;53.49;100592.88;5077481;28;20471;-71
2022/08/16 07:22:34;;;;;;;15.35;13.65;;;;;;;26.24;53.12;100598.75;5093278;28;20036;-71
2022/08/16 07:25:13;;;;;;;16.35;13.90;;;;;;;26.40;52.80;100594.69;5093143;28;20071;-70
2022/08/16 07:27:42;;;;;;;16.02;14.35;;;;;;;26.51;52.48;100605.03;5094452;28;20529;-70
2022/08/16 07:30:13;;;;;;;15.32;13.73;;;;;;;26.60;52.10;100604.56;5092806;28;20518;-71
2022/08/16 07:33:05;;;;;;;17.50;13.88;;;;;;;26.72;51.48;100614.88;5090248;28;20405;-77
2022/08/16 07:35:35;;;;;;;15.55;12.70;;;;;;;26.80;51.27;100609.13;5092759;28;20040;-70
2022/08/16 07:38:09;;;;;;;14.35;12.85;;;;;;;26.88;51.03;100611.63;5092618;28;20056;-70
2022/08/16 07:40:57;;;;;;;15.10;12.93;;;;;;;27.04;50.92;100613.91;5091872;28;20079;-70
2022/08/16 07:43:28;;;;;;;15.00;12.02;;;;;;;27.19;50.66;100614.41;5092636;28;20133;-69
2022/08/16 07:45:59;;;;;;;14.75;11.88;;;;;;;27.32;50.44;100616.22;5092664;28;20044;-70
2022/08/16 07:48:28;;;;;;;16.30;11.80;;;;;;;27.41;50.01;100622.31;5092605;28;20060;-70
2022/08/16 07:50:56;;;;;;;15.48;11.38;;;;;;;27.48;49.74;100623.94;5092497;28;20168;-71
2022/08/16 07:53:29;;;;;;;13.68;10.90;;;;;;;27.58;49.61;100625.38;5092299;28;20333;-70
2022/08/16 07:55:59;;;;;;;13.38;11.90;;;;;;;27.66;49.21;100616.84;5092891;28;20594;-70
2022/08/16 07:58:32;;;;;;;;;;;;;;;27.77;49.23;100625.22;5092724;28;20043;-71
2022/08/16 08:01:07;;;;;;;17.58;12.20;;;;;;;27.91;49.17;100617.66;5092483;28;19920;-71
2022/08/16 08:03:48;;;;;;;14.25;11.38;;;;;;;28.06;48.67;100620.06;5092315;28;20040;-71
2022/08/16 08:06:22;;;;;;;12.02;10.57;;;;;;;28.17;48.67;100619.28;5092166;28;20054;-71
2022/08/16 08:08:51;;;;;;;12.32;10.73;;;;;;;28.26;48.53;100625.41;5091092;28;20074;-68
2022/08/16 08:11:27;;;;;;;15.07;10.68;;;;;;;28.37;47.86;100621.88;5092009;28;20040;-70
2022/08/16 08:13:59;;;;;;;12.95;10.82;;;;;;;28.51;47.72;100623.41;5075841;28;20040;-70
2022/08/16 08:16:32;;;;;;;15.10;10.63;;;;;;;28.61;46.88;100628.38;5091768;28;20336;-70
2022/08/16 08:19:02;;;;;;;14.88;10.65;;;;;;;28.64;46.72;100627.91;5091587;28;20083;-72
2022/08/16 08:21:32;;;;;;;16.33;9.82;;;;;;;28.68;46.56;100620.84;5091518;28;20052;-70
2022/08/16 08:24:22;;;;;;;11.02;8.60;;;;;;;28.85;46.65;100623.81;5092254;28;20043;-70
2022/08/16 08:27:00;;;;;;;10.52;8.68;;;;;;;29.02;46.19;100631.25;5091791;28;20042;-69
2022/08/16 08:29:31;;;;;;;10.30;7.78;;;;;;;29.16;45.74;100636.59;5091709;28;20048;-69
2022/08/16 08:32:07;;;;;;;7.40;6.70;;;;;;;29.28;45.15;100634.69;5091593;28;20494;-69
2022/08/16 08:34:58;;;;;;;12.00;7.70;;;;;;;29.41;44.31;100634.47;5091891;28;20085;-70
2022/08/16 08:37:30;;;;;;;12.65;7.07;;;;;;;29.48;44.18;100635.25;5091485;28;20168;-70
2022/08/16 08:40:18;;;;;;;9.02;7.43;;;;;;;29.54;44.23;100639.81;5091466;28;20051;-71
2022/08/16 08:42:51;;;;;;;10.70;7.70;;;;;;;29.63;43.92;100632.84;5091368;28;20040;-70
2022/08/16 08:45:44;;;;;;;11.65;8.30;;;;;;;29.76;43.68;100647.56;5091315;28;20093;-70
2022/08/16 08:48:17;;;;;;;9.25;7.28;;;;;;;29.80;43.15;100644.06;5091380;28;20492;-70
2022/08/16 08:51:05;;;;;;;8.00;7.20;;;;;;;29.88;43.17;100648.41;5077019;28;20033;-71
2022/08/16 08:53:51;;;;;;;9.48;6.95;;;;;;;29.99;42.71;100650.34;5091285;28;20044;-72
2022/08/16 08:56:28;;;;;;;9.45;7.10;;;;;;;30.13;42.71;100646.25;5091190;28;20043;-71
2022/08/16 08:59:05;;;;;;;8.07;6.32;;;;;;;30.31;42.45;100646.13;5091054;28;20048;-71
2022/08/16 09:01:47;;;;;;;;;;;;;;;30.55;42.80;100654.41;5091559;28;20048;-70
2022/08/16 09:04:28;;;;;;;7.93;7.10;;;;;;;30.75;42.48;100657.63;5091201;28;19926;-70
2022/08/16 09:06:56;;;;;;;8.90;7.68;;;;;;;30.83;42.00;100662.78;5090851;28;20063;-70
2022/08/16 09:09:28;;;;;;;9.27;6.35;;;;;;;30.89;41.67;100652.63;5092329;28;20487;-70
2022/08/16 09:12:01;;;;;;;6.43;5.50;;;;;;;30.95;41.10;100652.47;5090744;28;20044;-70
2022/08/16 09:14:48;;;;;;;8.57;6.57;;;;;;;31.11;41.21;100653.59;5070987;28;20048;-71
2022/08/16 09:17:21;;;;;;;9.60;6.73;;;;;;;31.26;40.57;100648.41;5070723;28;20055;-71
2022/08/16 09:20:12;;;;;;;8.68;5.97;;;;;;;31.35;40.11;100651.59;5070829;28;20360;-71
2022/08/16 09:22:40;;;;;;;9.43;5.35;;;;;;;31.37;39.67;100654.13;5070366;28;20094;-71
2022/08/16 09:25:09;;;;;;;7.28;5.40;;;;;;;31.45;40.02;100654.56;5070638;28;20090;-71
2022/08/16 09:27:38;;;;;;;5.75;4.82;;;;;;;31.58;39.35;100664.50;5070426;28;20040;-71
2022/08/16 09:30:24;;;;;;;5.82;4.53;;;;;;;31.64;39.20;100657.09;5056222;28;20135;-71
2022/08/16 09:33:18;;;;;;;6.53;4.82;;;;;;;31.74;38.99;100660.06;5071852;28;20047;-71
2022/08/16 09:35:48;;;;;;;5.68;4.47;;;;;;;31.89;38.56;100661.16;5080222;28;20044;-71
2022/08/16 09:38:19;;;;;;;6.00;4.68;;;;;;;32.05;38.58;100659.47;5088803;28;20044;-71
2022/08/16 09:40:59;;;;;;;5.00;4.30;;;;;;;32.10;37.90;100664.25;5091522;28;20508;-71
2022/08/16 09:43:30;;;;;;;6.05;4.88;;;;;;;32.19;37.37;100663.56;5090981;28;20039;-70
2022/08/16 09:46:17;;;;;;;5.75;4.18;;;;;;;32.31;37.60;100671.81;5091084;28;20114;-72
2022/08/16 09:49:04;;;;;;;5.03;4.32;;;;;;;32.42;37.13;100658.91;5099572;28;20043;-70
2022/08/16 09:51:34;;;;;;;4.53;3.85;;;;;;;32.55;36.80;100661.28;5111627;28;20044;-72
2022/08/16 09:54:06;;;;;;;5.10;4.00;;;;;;;32.64;36.13;100662.53;5098538;28;20096;-71
2022/08/16 09:56:37;;;;;;;5.63;4.32;;;;;;;32.71;36.09;100657.63;5091708;27;20121;-71
2022/08/16 09:59:06;;;;;;;5.32;4.38;;;;;;;32.77;35.79;100659.41;5099041;28;20048;-72
2022/08/16 10:01:35;;;;;;;6.82;4.03;;;;;;;32.81;35.62;100665.28;5091094;28;20036;-71
2022/08/16 10:04:05;;;;;;;7.00;4.60;;;;;;;32.79;35.12;100656.38;5092056;28;20050;-71
2022/08/16 10:06:56;;;;;;;5.70;4.13;;;;;;;32.76;35.09;100656.84;5097579;28;20043;-71
2022/08/16 10:09:24;;;;;;;5.82;4.13;;;;;;;32.80;34.62;100652.47;5091233;28;20139;-69
2022/08/16 10:14:45;;;;;;;9.70;4.95;;;;;;;32.96;34.88;100659.91;5091029;28;20402;-70
2022/08/16 10:17:12;;;;;;;5.13;4.15;;;;;;;32.98;34.66;100657.69;5090752;28;20502;-68
2022/08/16 10:19:40;;;;;;;4.43;3.90;;;;;;;33.06;34.88;100659.16;5090729;28;20510;-68
2022/08/16 10:22:09;;;;;;;8.15;4.05;;;;;;;33.15;34.46;100657.59;5090231;28;20040;-69
2022/08/16 10:24:39;;;;;;;5.57;4.47;;;;;;;33.12;34.13;100664.53;5090841;28;20043;-70
2022/08/16 10:27:21;;;;;;;5.88;4.28;;;;;;;33.11;34.04;100657.28;5089688;28;20049;-68
2022/08/16 10:29:55;;;;;;;7.45;4.10;;;;;;;33.08;34.27;100659.75;5091317;28;20097;-69
2022/08/16 10:32:33;;;;;;;6.82;4.30;;;;;;;33.13;33.92;100657.84;5090218;28;20089;-70
2022/08/16 10:35:02;;;;;;;5.40;4.25;;;;;;;33.26;34.13;100659.38;5072944;27;20057;-69
2022/08/16 10:37:29;;;;;;;5.45;4.40;;;;;;;33.38;33.63;100648.94;5090473;28;20040;-69
2022/08/16 10:40:03;;;;;;;7.00;4.50;;;;;;;33.41;33.77;100655.91;5090977;28;20139;-69
2022/08/16 10:42:30;;;;;;;5.85;4.05;;;;;;;33.55;33.47;100659.13;5090367;28;20094;-69
2022/08/16 10:44:57;;;;;;;5.95;4.22;;;;;;;33.67;33.16;100651.44;5090970;28;20043;-69
2022/08/16 10:47:25;;;;;;;6.30;4.40;;;;;;;33.72;33.03;100662.63;5090330;28;20052;-69
2022/08/16 10:49:54;;;;;;;6.93;4.22;;;;;;;33.78;32.71;100662.41;5090848;28;20040;-68
2022/08/16 10:52:21;;;;;;;7.88;3.95;;;;;;;33.86;32.94;100663.03;5093202;28;20048;-69
2022/08/16 10:54:51;;;;;;;6.05;4.72;;;;;;;33.94;32.34;100662.53;5095235;28;20050;-69
2022/08/16 10:57:39;;;;;;;6.55;4.18;;;;;;;34.01;32.30;100658.41;5093648;28;20040;-69
2022/08/16 11:00:11;;;;;;;7.15;3.72;;;;;;;34.10;31.82;100658.75;5094559;28;20043;-69
2022/08/16 11:02:50;;;;;;;3.97;3.50;;;;;;;34.26;31.25;100662.50;5094260;28;20051;-69
2022/08/16 11:05:40;;;;;;;7.72;4.05;;;;;;;34.40;30.92;100655.34;5094042;27;20065;-69
2022/08/16 11:08:27;;;;;;;4.05;3.45;;;;;;;34.49;31.10;100659.28;5074006;28;20040;-69
2022/08/16 11:11:04;;;;;;;6.68;3.80;;;;;;;34.56;30.60;100659.88;5074234;28;20517;-69
2022/08/16 11:13:42;;;;;;;5.10;3.65;;;;;;;34.66;30.48;100671.06;5074132;28;20048;-69
2022/08/16 11:16:29;;;;;;;6.72;3.72;;;;;;;34.73;30.82;100668.03;5079948;28;20563;-69
2022/08/16 11:19:16;;;;;;;4.13;3.42;;;;;;;34.80;30.25;100674.19;5094104;28;20417;-71
2022/08/16 11:21:44;;;;;;;7.47;3.38;;;;;;;34.91;30.34;100667.56;5094093;28;20066;-69
2022/08/16 11:24:31;;;;;;;5.55;3.55;;;;;;;35.01;29.90;100667.63;5097091;28;20044;-69
2022/08/16 11:27:15;;;;;;;5.30;3.13;;;;;;;35.18;29.83;100681.34;5093245;28;20344;-70
2022/08/16 11:29:49;;;;;;;8.77;3.65;;;;;;;35.22;29.53;100674.09;5094002;28;20040;-69
2022/08/16 11:32:19;;;;;;;4.57;3.15;;;;;;;35.25;28.94;100675.50;5093438;28;20493;-69
2022/08/16 11:35:04;;;;;;;8.68;3.00;;;;;;;35.29;28.86;100682.19;5094172;28;20090;-69
2022/08/16 11:37:41;;;;;;;4.72;2.75;;;;;;;35.28;28.53;100674.94;5093597;28;20070;-69
2022/08/16 11:40:36;;;;;;;3.88;3.00;;;;;;;35.30;28.49;100675.50;5093190;28;20505;-70
2022/08/16 11:43:07;;;;;;;4.97;3.28;;;;;;;35.35;28.36;100679.16;5093685;28;20097;-70
2022/08/16 11:45:37;;;;;;;5.30;2.92;;;;;;;35.34;28.22;100673.84;5092650;28;20390;-70
2022/08/16 11:48:05;;;;;;;4.55;3.33;;;;;;;35.38;28.44;100682.53;5093346;28;20040;-70
2022/08/16 11:50:33;;;;;;;6.57;2.80;;;;;;;35.39;27.79;100682.25;5092556;28;20383;-70
2022/08/16 11:53:10;;;;;;;3.95;3.03;;;;;;;35.38;27.66;100688.09;5093478;28;20040;-69
2022/08/16 11:55:42;;;;;;;3.20;2.90;;;;;;;35.35;27.68;100683.91;5093665;28;20044;-69